createdAt,value
2023-04-16T05:02:27.404Z,100014.20
2023-04-16T05:04:56.518Z,100017.00
2023-04-16T05:07:25.729Z,100019.40
2023-04-16T05:09:57.744Z,100013.80
2023-04-16T05:12:27.216Z,100016.20
2023-04-16T05:14:57.566Z,100019.00
2023-04-16T05:17:26.428Z,100024.40
2023-04-16T05:19:55.406Z,100029.00
2023-04-16T05:22:25.684Z,100034.00
2023-04-16T05:24:54.729Z,100036.60
2023-04-16T05:27:23.627Z,100039.20
2023-04-16T05:29:52.612Z,100040.80
2023-04-16T05:32:21.445Z,100045.80
2023-04-16T05:34:50.290Z,100043.60
2023-04-16T05:37:19.093Z,100047.20
2023-04-16T05:39:48.589Z,100044.40
2023-04-16T05:42:17.494Z,100045.20
2023-04-16T05:44:46.493Z,100045.60
2023-04-16T05:47:15.257Z,100048.00
2023-04-16T05:49:44.035Z,100048.40
2023-04-16T05:52:12.938Z,100054.20
2023-04-16T05:54:41.628Z,100056.60
2023-04-16T05:57:10.620Z,100055.00
2023-04-16T05:59:39.221Z,100059.60
2023-04-16T06:02:08.218Z,100064.00
2023-04-16T06:04:37.607Z,100062.20
2023-04-16T06:07:06.717Z,100063.80
2023-04-16T06:09:35.380Z,100069.40
2023-04-16T06:12:04.816Z,100072.80
2023-04-16T06:14:33.573Z,100076.80
2023-04-16T06:17:02.463Z,100077.80
2023-04-16T06:19:31.152Z,100083.40
2023-04-16T06:22:00.037Z,100083.80
2023-04-16T06:24:28.936Z,100087.20
2023-04-16T06:26:58.052Z,100091.00
2023-04-16T06:29:36.865Z,100091.20
2023-04-16T06:32:09.340Z,100091.60
2023-04-16T06:34:39.650Z,100091.60
2023-04-16T06:37:10.529Z,100096.80
2023-04-16T06:39:39.589Z,100094.80
2023-04-16T06:42:08.781Z,100094.40
2023-04-16T06:44:37.579Z,100097.80
2023-04-16T06:47:06.473Z,100099.20
2023-04-16T06:49:35.142Z,100096.00
2023-04-16T06:52:05.799Z,100091.00
2023-04-16T06:54:35.587Z,100093.60
2023-04-16T06:57:04.564Z,100098.60
2023-04-16T06:59:33.283Z,100106.00
2023-04-16T07:02:02.681Z,100105.80
2023-04-16T07:04:31.986Z,100108.00
2023-04-16T07:07:00.986Z,100111.20
2023-04-16T07:09:29.968Z,100111.40
2023-04-16T07:11:58.976Z,100118.00
2023-04-16T07:14:28.062Z,100124.40
2023-04-16T07:16:57.019Z,100119.80
2023-04-16T07:19:26.455Z,100124.20
2023-04-16T07:21:55.341Z,100123.20
2023-04-16T07:24:24.121Z,100123.20
2023-04-16T07:26:52.924Z,100118.80
2023-04-16T07:29:22.029Z,100117.80
2023-04-16T07:31:51.281Z,100119.40
2023-04-16T07:34:20.219Z,100120.20
2023-04-16T07:36:49.155Z,100126.80
2023-04-16T07:39:18.112Z,100131.80
2023-04-16T07:41:47.102Z,100134.00
2023-04-16T07:44:16.207Z,100134.20
2023-04-16T07:46:47.242Z,100134.80
2023-04-16T07:49:16.814Z,100135.80
2023-04-16T07:51:46.168Z,100135.80
2023-04-16T07:54:15.344Z,100141.80
2023-04-16T07:56:44.250Z,100146.80
2023-04-16T07:59:22.021Z,100141.40
2023-04-16T08:01:54.544Z,100140.40
2023-04-16T08:04:25.995Z,100143.20
2023-04-16T08:06:55.519Z,100142.80
2023-04-16T08:09:29.308Z,100149.60
2023-04-16T08:11:58.165Z,100156.20
2023-04-16T08:14:27.078Z,100157.40
2023-04-16T08:16:56.050Z,100153.60
2023-04-16T08:19:25.252Z,100151.80
2023-04-16T08:21:54.263Z,100152.80
2023-04-16T08:24:23.329Z,100152.20
2023-04-16T08:26:52.334Z,100154.80
2023-04-16T08:29:21.734Z,100156.60
2023-04-16T08:31:50.570Z,100160.40
2023-04-16T08:34:19.533Z,100162.20
2023-04-16T08:36:48.562Z,100166.40
2023-04-16T08:39:17.412Z,100165.20
2023-04-16T08:41:47.639Z,100166.80
2023-04-16T08:44:29.132Z,100169.40
2023-04-16T08:46:59.676Z,100174.60
2023-04-16T08:49:29.164Z,100177.60
2023-04-16T08:51:58.708Z,100179.60
2023-04-16T08:55:04.950Z,100180.60
2023-04-16T08:57:58.644Z,100186.60
2023-04-16T09:00:33.002Z,100190.00
2023-04-16T09:03:03.825Z,100184.00
2023-04-16T09:05:40.688Z,100188.60
2023-04-16T09:08:18.827Z,100188.80
2023-04-16T09:10:48.866Z,100187.80
2023-04-16T09:13:20.788Z,100185.00
2023-04-16T09:15:54.663Z,100188.60
2023-04-16T09:18:24.608Z,100186.20
2023-04-16T09:20:53.832Z,100186.80
2023-04-16T09:23:26.154Z,100192.40
2023-04-16T09:25:59.852Z,100188.00
2023-04-16T09:28:48.846Z,100192.00
2023-04-16T09:31:19.897Z,100189.60
2023-04-16T09:34:07.540Z,100189.00
2023-04-16T09:36:37.581Z,100196.00
2023-04-16T09:39:06.791Z,100193.60
2023-04-16T09:41:40.057Z,100189.60
2023-04-16T09:44:09.058Z,100188.00
2023-04-16T09:46:42.566Z,100186.20
2023-04-16T09:49:16.506Z,100190.00
2023-04-16T09:51:50.006Z,100187.20
2023-04-16T09:54:20.740Z,100191.40
2023-04-16T09:56:49.594Z,100189.20
2023-04-16T09:59:23.435Z,100189.60
2023-04-16T10:02:14.307Z,100187.00
2023-04-16T10:04:55.871Z,100191.60
2023-04-16T10:07:30.558Z,100190.20
2023-04-16T10:09:59.674Z,100193.80
2023-04-16T10:12:30.098Z,100195.00
2023-04-16T10:14:59.262Z,100200.40
2023-04-16T10:17:30.714Z,100200.60
2023-04-16T10:20:01.989Z,100193.80
2023-04-16T10:22:31.553Z,100197.80
2023-04-16T10:25:00.971Z,100194.60
2023-04-16T10:27:30.353Z,100197.60
2023-04-16T10:29:59.872Z,100196.20
2023-04-16T10:32:31.691Z,100198.20
2023-04-16T10:35:00.513Z,100194.20
2023-04-16T10:37:33.470Z,100192.80
2023-04-16T10:40:02.592Z,100184.80
2023-04-16T10:42:32.210Z,100183.60
2023-04-16T10:45:01.516Z,100190.00
2023-04-16T10:47:30.434Z,100186.20
2023-04-16T10:49:59.489Z,100192.80
2023-04-16T10:52:30.591Z,100193.20
2023-04-16T10:55:01.331Z,100188.20
2023-04-16T10:57:31.050Z,100184.80
2023-04-16T10:59:59.869Z,100184.80
2023-04-16T11:02:30.270Z,100188.00
2023-04-16T11:04:59.502Z,100186.80
2023-04-16T11:07:36.256Z,100182.40
2023-04-16T11:10:07.532Z,100180.40
2023-04-16T11:12:39.610Z,100185.80
2023-04-16T11:15:21.785Z,100184.00
2023-04-16T11:21:10.646Z,100182.80
2023-04-16T11:23:51.848Z,100186.20
2023-04-16T11:26:33.549Z,100183.00
2023-04-16T11:29:02.830Z,100180.60
2023-04-16T11:31:31.976Z,100188.20
2023-04-16T11:34:01.551Z,100184.00
2023-04-16T11:36:48.339Z,100184.40
2023-04-16T11:39:17.954Z,100188.60
2023-04-16T11:41:49.139Z,100191.40
2023-04-16T11:44:27.692Z,100184.80
2023-04-16T11:46:56.900Z,100191.20
2023-04-16T11:49:32.501Z,100198.00
2023-04-16T11:52:01.677Z,100192.40
2023-04-16T11:54:35.119Z,100187.40
2023-04-16T11:57:07.139Z,100190.20
2023-04-16T11:59:37.562Z,100190.40
2023-04-16T12:02:52.989Z,100186.80
2023-04-16T12:05:39.213Z,100193.80
2023-04-16T12:08:13.139Z,100192.40
2023-04-16T12:10:56.324Z,100189.60
2023-04-16T12:13:25.083Z,100190.40
2023-04-16T12:15:56.439Z,100192.20
2023-04-16T12:18:28.365Z,100193.00
2023-04-16T12:20:58.381Z,100194.80
2023-04-16T12:23:33.845Z,100187.60
2023-04-16T12:26:12.581Z,100188.60
2023-04-16T12:28:42.024Z,100188.20
2023-04-16T12:31:11.839Z,100186.40
2023-04-16T12:33:40.653Z,100187.20
2023-04-16T12:36:20.355Z,100185.40
2023-04-16T12:38:49.521Z,100189.40
2023-04-16T12:41:18.706Z,100189.80
2023-04-16T12:43:47.631Z,100189.20
2023-04-16T12:46:16.861Z,100189.40
2023-04-16T12:48:46.230Z,100189.40
2023-04-16T12:51:15.092Z,100188.80
2023-04-16T12:53:45.252Z,100188.00
2023-04-16T12:56:14.419Z,100193.00
2023-04-16T12:58:43.417Z,100187.20
2023-04-16T13:01:12.749Z,100187.00
2023-04-16T13:03:41.966Z,100188.60
2023-04-16T13:06:11.012Z,100188.00
2023-04-16T13:08:41.994Z,100189.60
2023-04-16T13:11:12.410Z,100191.00
2023-04-16T13:13:43.035Z,100187.80
2023-04-16T13:16:14.698Z,100183.40
2023-04-16T13:18:44.734Z,100184.00
2023-04-16T13:21:35.326Z,100190.00
2023-04-16T13:24:05.163Z,100183.20
2023-04-16T13:26:34.185Z,100184.60
2023-04-16T13:29:03.450Z,100177.80
2023-04-16T13:31:33.685Z,100181.20
2023-04-16T13:34:03.765Z,100179.40
2023-04-16T13:36:33.920Z,100179.00
2023-04-16T13:39:15.655Z,100171.20
2023-04-16T13:41:45.998Z,100173.40
2023-04-16T13:44:17.173Z,100166.80
2023-04-16T13:46:48.242Z,100164.20
2023-04-16T13:49:17.143Z,100162.00
2023-04-16T13:51:46.979Z,100158.20
2023-04-16T13:54:16.672Z,100164.60
2023-04-16T13:56:50.364Z,100166.60
2023-04-16T13:59:20.556Z,100165.40
2023-04-16T14:01:49.929Z,100163.80
2023-04-16T14:04:20.389Z,100169.20
2023-04-16T14:06:51.238Z,100164.60
2023-04-16T14:09:21.632Z,100171.60
2023-04-16T14:11:53.693Z,100167.60
2023-04-16T14:14:22.936Z,100169.20
2023-04-16T14:16:52.472Z,100168.20
2023-04-16T14:19:21.964Z,100173.20
2023-04-16T14:21:51.736Z,100167.60
2023-04-16T14:24:20.974Z,100169.60
2023-04-16T14:26:50.680Z,100171.20
2023-04-16T14:29:20.119Z,100168.40
2023-04-16T14:31:52.461Z,100162.00
2023-04-16T14:34:22.874Z,100167.00
2023-04-16T14:36:52.543Z,100162.20
2023-04-16T14:39:22.220Z,100171.20
2023-04-16T14:41:51.862Z,100171.40
2023-04-16T14:44:22.116Z,100173.00
2023-04-16T14:46:51.449Z,100174.60
2023-04-16T14:49:21.149Z,100173.00
2023-04-16T14:51:51.047Z,100177.40
2023-04-16T14:54:21.370Z,100177.60
2023-04-16T14:56:52.781Z,100181.40
2023-04-16T14:59:23.603Z,100180.20
2023-04-16T15:01:56.516Z,100179.40
2023-04-16T15:04:30.179Z,100180.20
2023-04-16T15:07:02.865Z,100184.00
2023-04-16T15:09:40.607Z,100182.20
2023-04-16T15:12:11.713Z,100186.00
2023-04-16T15:14:41.777Z,100187.80
2023-04-16T15:17:12.938Z,100192.60
2023-04-16T15:19:42.300Z,100193.20
2023-04-16T15:22:15.882Z,100197.00
2023-04-16T15:24:48.216Z,100198.80
2023-04-16T15:27:21.508Z,100200.00
2023-04-16T15:29:52.103Z,100201.00
2023-04-16T15:32:27.448Z,100204.60
2023-04-16T15:35:01.610Z,100203.80
2023-04-16T15:37:37.159Z,100202.20
2023-04-16T15:40:09.693Z,100202.60
2023-04-16T15:42:40.165Z,100202.20
2023-04-16T15:45:12.994Z,100204.60
2023-04-16T15:47:45.945Z,100207.20
2023-04-16T15:50:16.905Z,100208.20
2023-04-16T15:52:50.502Z,100207.60
2023-04-16T15:55:21.827Z,100213.00
2023-04-16T15:57:53.267Z,100213.00
2023-04-16T16:00:24.111Z,100215.00
2023-04-16T16:02:54.514Z,100222.60
2023-04-16T16:05:24.874Z,100223.80
2023-04-16T16:07:55.999Z,100219.60
2023-04-16T16:10:25.595Z,100221.80
2023-04-16T16:12:55.636Z,100229.40
2023-04-16T16:15:25.769Z,100222.40
2023-04-16T16:17:56.335Z,100218.20
2023-04-16T16:20:27.207Z,100223.60
2023-04-16T16:22:58.126Z,100226.80
2023-04-16T16:25:28.639Z,100227.80
2023-04-16T16:27:59.978Z,100228.80
2023-04-16T16:30:29.952Z,100235.60
2023-04-16T16:33:00.327Z,100238.80
2023-04-16T16:35:29.493Z,100237.60
2023-04-16T16:38:00.820Z,100241.20
2023-04-16T16:40:32.068Z,100247.40
2023-04-16T16:43:03.808Z,100248.60
2023-04-16T16:45:34.038Z,100253.80
2023-04-16T16:48:04.350Z,100253.60
2023-04-16T16:50:36.781Z,100263.60
2023-04-16T16:53:07.276Z,100261.00
2023-04-16T16:55:39.439Z,100266.20
2023-04-16T16:58:10.636Z,100276.40
2023-04-16T17:00:40.917Z,100284.40
2023-04-16T17:03:11.656Z,100291.80
2023-04-16T17:05:41.581Z,100300.00
2023-04-16T17:08:11.563Z,100303.40
2023-04-16T17:10:42.315Z,100309.60
2023-04-16T17:13:14.324Z,100313.20
2023-04-16T17:15:47.525Z,100319.40
2023-04-16T17:18:18.315Z,100318.00
2023-04-16T17:20:49.077Z,100332.20
2023-04-16T17:23:21.930Z,100338.20
2023-04-16T17:25:52.833Z,100338.60
2023-04-16T17:28:23.489Z,100339.20
2023-04-16T17:30:57.948Z,100333.20
2023-04-16T17:33:28.868Z,100331.40
2023-04-16T17:36:00.284Z,100339.80
2023-04-16T17:41:21.028Z,100361.60
2023-04-16T17:43:53.469Z,100359.80
2023-04-16T17:46:24.198Z,100357.40
2023-04-16T17:49:02.244Z,100363.20
2023-04-16T17:51:33.332Z,100364.40
2023-04-16T17:54:05.198Z,100372.80
2023-04-16T17:56:37.670Z,100365.80
2023-04-16T17:59:13.892Z,100363.20
2023-04-16T18:01:45.917Z,100372.00
2023-04-16T18:04:19.117Z,100382.00
2023-04-16T18:06:50.256Z,100383.00
2023-04-16T18:09:20.932Z,100386.00
2023-04-16T18:11:52.911Z,100391.40
2023-04-16T18:14:25.958Z,100391.00
2023-04-16T18:16:56.652Z,100390.00
2023-04-16T18:19:28.324Z,100389.60
2023-04-16T18:22:02.175Z,100388.00
2023-04-16T18:24:34.811Z,100396.40
2023-04-16T18:27:05.878Z,100406.40
2023-04-16T18:29:40.501Z,100407.40
2023-04-16T18:32:12.359Z,100410.00
2023-04-16T18:34:42.111Z,100411.20
2023-04-16T18:37:12.327Z,100416.60
2023-04-16T18:39:45.123Z,100421.60
2023-04-16T18:42:15.648Z,100417.40
2023-04-16T18:44:56.124Z,100423.40
2023-04-16T18:47:26.431Z,100422.00
2023-04-16T18:49:57.146Z,100427.40
2023-04-16T18:52:29.006Z,100420.40
2023-04-16T18:55:12.545Z,100425.40
2023-04-16T18:57:47.063Z,100424.20
2023-04-16T19:00:22.604Z,100427.20
2023-04-16T19:02:54.871Z,100427.80
2023-04-16T19:05:30.497Z,100425.60
2023-04-16T19:08:02.316Z,100431.00
2023-04-16T19:10:35.400Z,100431.20
2023-04-16T19:13:09.887Z,100438.00
2023-04-16T19:15:43.069Z,100435.60
2023-04-16T19:18:15.960Z,100442.00
2023-04-16T19:20:47.252Z,100438.20
2023-04-16T19:23:17.711Z,100435.60
2023-04-16T19:25:50.510Z,100443.60
2023-04-16T19:28:24.466Z,100438.60
2023-04-16T19:30:56.286Z,100441.20
2023-04-16T19:33:28.030Z,100439.60
2023-04-16T19:35:57.680Z,100440.40
2023-04-16T19:38:28.920Z,100438.80
2023-04-16T19:41:03.541Z,100439.00
2023-04-16T19:43:34.286Z,100437.40
2023-04-16T19:46:04.920Z,100443.20
2023-04-16T19:48:44.693Z,100438.20
2023-04-16T19:51:14.829Z,100442.00
2023-04-16T19:53:45.547Z,100446.80
2023-04-16T19:56:17.152Z,100448.20
2023-04-16T19:58:47.866Z,100446.40
2023-04-16T20:01:22.071Z,100446.20
2023-04-16T20:03:53.412Z,100445.20
2023-04-16T20:06:26.507Z,100448.40
2023-04-16T20:08:58.321Z,100444.20
2023-04-16T20:11:31.134Z,100447.40
2023-04-16T20:14:01.578Z,100447.00
2023-04-16T20:16:32.870Z,100447.60
2023-04-16T20:19:06.506Z,100446.60
2023-04-16T20:21:39.118Z,100449.00
2023-04-16T20:24:11.927Z,100457.00
2023-04-16T20:26:42.253Z,100453.20
2023-04-16T20:29:12.493Z,100449.60
2023-04-16T20:31:48.105Z,100449.80
2023-04-16T20:34:18.659Z,100451.60
2023-04-16T20:36:49.401Z,100454.40
2023-04-16T20:39:21.044Z,100456.80
2023-04-16T20:41:57.114Z,100451.80
2023-04-16T20:44:34.005Z,100454.20
2023-04-16T20:47:03.387Z,100451.20
2023-04-16T20:49:35.067Z,100454.20
2023-04-16T20:52:04.870Z,100454.00
2023-04-16T20:54:34.847Z,100450.60
2023-04-16T20:57:04.833Z,100449.60
2023-04-16T20:59:34.605Z,100451.40
2023-04-16T21:02:04.018Z,100450.00
2023-04-16T21:04:33.701Z,100448.60
2023-04-16T21:07:04.484Z,100448.80
2023-04-16T21:09:33.357Z,100451.20
2023-04-16T21:12:03.085Z,100456.80
2023-04-16T21:14:31.828Z,100454.80
2023-04-16T21:17:00.854Z,100454.60
2023-04-16T21:19:30.248Z,100456.20
2023-04-16T21:21:59.324Z,100455.00
2023-04-16T21:24:28.329Z,100453.80
2023-04-16T21:26:57.846Z,100453.80
2023-04-16T21:29:26.856Z,100454.20
2023-04-16T21:31:56.550Z,100446.40
2023-04-16T21:34:25.835Z,100452.00
2023-04-16T21:36:54.615Z,100453.00
2023-04-16T21:39:24.838Z,100450.00
2023-04-16T21:41:53.538Z,100449.60
2023-04-16T21:44:22.430Z,100446.60
2023-04-16T21:46:51.733Z,100448.00
2023-04-16T21:49:20.721Z,100447.40
2023-04-16T21:51:50.836Z,100444.80
2023-04-16T21:54:20.760Z,100443.00
2023-04-16T21:56:49.558Z,100443.60
2023-04-16T22:04:06.785Z,100445.80
2023-04-16T22:07:22.530Z,100446.60
2023-04-16T22:11:26.242Z,100445.60
2023-04-16T22:20:38.074Z,100447.40
2023-04-16T22:32:53.958Z,100445.40
2023-04-16T22:36:22.111Z,100442.60
2023-04-16T22:40:04.310Z,100441.80
2023-04-16T22:48:47.407Z,100445.80
2023-04-16T23:04:12.523Z,100435.20
2023-04-16T23:08:43.885Z,100428.20
2023-04-16T23:12:37.122Z,100437.80
2023-04-16T23:16:18.079Z,100441.60
2023-04-16T23:32:00.710Z,100442.40
2023-04-16T23:40:32.000Z,100442.00
2023-04-16T23:44:13.311Z,100440.60
2023-04-16T23:47:52.464Z,100445.80
2023-04-16T23:51:48.610Z,100443.60
2023-04-16T23:55:35.128Z,100444.80
2023-04-16T23:59:13.463Z,100436.80
